sensor_id;sensor_type;location;lat;lon;timestamp;temperature;humidity
73438;DHT22;66471;56.532;21.020;2024-03-22T00:01:47;4.30;99.90
73438;DHT22;66471;56.532;21.020;2024-03-22T00:04:14;4.10;99.90
73438;DHT22;66471;56.532;21.020;2024-03-22T00:06:42;4.30;99.90
73438;DHT22;66471;56.532;21.020;2024-03-22T00:09:09;4.20;99.90
73438;DHT22;66471;56.532;21.020;2024-03-22T00:11:36;4.00;99.90
73438;DHT22;66471;56.532;21.020;2024-03-22T00:14:03;4.30;99.90
73438;DHT22;66471;56.532;21.020;2024-03-22T00:16:29;4.20;99.90
73438;DHT22;66471;56.532;21.020;2024-03-22T00:18:55;4.00;99.90
73438;DHT22;66471;56.532;21.020;2024-03-22T00:21:22;4.00;99.90
73438;DHT22;66471;56.532;21.020;2024-03-22T00:23:49;4.10;99.90
73438;DHT22;66471;56.532;21.020;2024-03-22T00:26:15;4.20;99.90
73438;DHT22;66471;56.532;21.020;2024-03-22T00:28:41;4.40;99.90
73438;DHT22;66471;56.532;21.020;2024-03-22T00:31:08;4.20;99.90
73438;DHT22;66471;56.532;21.020;2024-03-22T00:33:35;4.10;99.90
73438;DHT22;66471;56.532;21.020;2024-03-22T00:36:01;4.20;99.90
73438;DHT22;66471;56.532;21.020;2024-03-22T00:38:28;4.10;99.90
73438;DHT22;66471;56.532;21.020;2024-03-22T00:40:54;3.90;99.90
73438;DHT22;66471;56.532;21.020;2024-03-22T00:43:21;3.70;99.90
73438;DHT22;66471;56.532;21.020;2024-03-22T00:45:47;3.50;99.90
73438;DHT22;66471;56.532;21.020;2024-03-22T00:48:14;3.30;99.90
73438;DHT22;66471;56.532;21.020;2024-03-22T00:50:40;3.20;99.90
73438;DHT22;66471;56.532;21.020;2024-03-22T00:53:06;3.10;99.90
73438;DHT22;66471;56.532;21.020;2024-03-22T00:55:34;3.10;99.90
73438;DHT22;66471;56.532;21.020;2024-03-22T00:58:00;3.30;99.90
73438;DHT22;66471;56.532;21.020;2024-03-22T01:00:27;3.10;99.90
73438;DHT22;66471;56.532;21.020;2024-03-22T01:02:53;3.20;99.90
73438;DHT22;66471;56.532;21.020;2024-03-22T01:05:20;3.10;99.90
73438;DHT22;66471;56.532;21.020;2024-03-22T01:07:46;3.00;99.90
73438;DHT22;66471;56.532;21.020;2024-03-22T01:10:12;3.10;99.90
73438;DHT22;66471;56.532;21.020;2024-03-22T01:12:39;3.30;99.90
73438;DHT22;66471;56.532;21.020;2024-03-22T01:15:06;3.20;99.90
73438;DHT22;66471;56.532;21.020;2024-03-22T01:17:33;3.20;99.90
73438;DHT22;66471;56.532;21.020;2024-03-22T01:20:00;3.10;99.90
73438;DHT22;66471;56.532;21.020;2024-03-22T01:22:26;3.20;99.90
73438;DHT22;66471;56.532;21.020;2024-03-22T01:24:53;3.20;99.90
73438;DHT22;66471;56.532;21.020;2024-03-22T01:27:20;3.40;99.90
73438;DHT22;66471;56.532;21.020;2024-03-22T01:29:46;3.40;99.90
73438;DHT22;66471;56.532;21.020;2024-03-22T01:32:13;3.70;99.90
73438;DHT22;66471;56.532;21.020;2024-03-22T01:34:39;3.60;99.90
73438;DHT22;66471;56.532;21.020;2024-03-22T01:37:06;3.50;99.90
73438;DHT22;66471;56.532;21.020;2024-03-22T01:39:32;3.50;99.90
73438;DHT22;66471;56.532;21.020;2024-03-22T01:41:59;3.70;99.90
73438;DHT22;66471;56.532;21.020;2024-03-22T01:44:28;3.80;99.90
73438;DHT22;66471;56.532;21.020;2024-03-22T01:46:55;3.60;99.90
73438;DHT22;66471;56.532;21.020;2024-03-22T01:49:22;3.90;99.90
73438;DHT22;66471;56.532;21.020;2024-03-22T01:51:51;3.90;99.90
73438;DHT22;66471;56.532;21.020;2024-03-22T01:54:20;3.90;99.90
73438;DHT22;66471;56.532;21.020;2024-03-22T01:56:46;3.80;99.90
73438;DHT22;66471;56.532;21.020;2024-03-22T01:59:13;4.10;99.90
73438;DHT22;66471;56.532;21.020;2024-03-22T02:01:40;3.90;99.90
73438;DHT22;66471;56.532;21.020;2024-03-22T02:04:06;4.00;99.90
73438;DHT22;66471;56.532;21.020;2024-03-22T02:06:33;3.90;99.90
73438;DHT22;66471;56.532;21.020;2024-03-22T02:08:59;4.00;99.90
73438;DHT22;66471;56.532;21.020;2024-03-22T02:11:26;4.30;99.90
73438;DHT22;66471;56.532;21.020;2024-03-22T02:13:52;4.20;99.90
73438;DHT22;66471;56.532;21.020;2024-03-22T02:16:18;4.20;99.90
73438;DHT22;66471;56.532;21.020;2024-03-22T02:18:45;4.00;99.90
73438;DHT22;66471;56.532;21.020;2024-03-22T02:21:11;4.10;99.90
73438;DHT22;66471;56.532;21.020;2024-03-22T02:23:39;4.20;99.90
73438;DHT22;66471;56.532;21.020;2024-03-22T02:26:06;4.00;99.90
73438;DHT22;66471;56.532;21.020;2024-03-22T02:28:34;4.00;99.90
73438;DHT22;66471;56.532;21.020;2024-03-22T02:31:01;4.10;99.90
73438;DHT22;66471;56.532;21.020;2024-03-22T02:33:27;4.20;99.90
73438;DHT22;66471;56.532;21.020;2024-03-22T02:35:53;4.10;99.90
73438;DHT22;66471;56.532;21.020;2024-03-22T02:38:19;4.30;99.90
73438;DHT22;66471;56.532;21.020;2024-03-22T02:40:47;4.20;99.90
73438;DHT22;66471;56.532;21.020;2024-03-22T02:43:14;4.10;99.90
73438;DHT22;66471;56.532;21.020;2024-03-22T02:45:40;4.10;99.90
73438;DHT22;66471;56.532;21.020;2024-03-22T02:48:07;4.00;99.90
73438;DHT22;66471;56.532;21.020;2024-03-22T02:50:34;4.10;99.90
73438;DHT22;66471;56.532;21.020;2024-03-22T02:53:00;4.10;99.90
73438;DHT22;66471;56.532;21.020;2024-03-22T02:55:27;4.10;99.90
73438;DHT22;66471;56.532;21.020;2024-03-22T02:57:53;4.00;99.90
73438;DHT22;66471;56.532;21.020;2024-03-22T03:00:19;4.10;99.90
73438;DHT22;66471;56.532;21.020;2024-03-22T03:02:46;4.20;99.90
73438;DHT22;66471;56.532;21.020;2024-03-22T03:05:12;4.00;99.90
73438;DHT22;66471;56.532;21.020;2024-03-22T03:07:38;4.30;99.90
73438;DHT22;66471;56.532;21.020;2024-03-22T03:10:05;4.10;99.90
73438;DHT22;66471;56.532;21.020;2024-03-22T03:12:32;4.00;99.90
73438;DHT22;66471;56.532;21.020;2024-03-22T03:14:59;4.20;99.90
73438;DHT22;66471;56.532;21.020;2024-03-22T03:17:25;4.00;99.90
73438;DHT22;66471;56.532;21.020;2024-03-22T03:19:51;4.20;99.90
73438;DHT22;66471;56.532;21.020;2024-03-22T03:22:18;4.10;99.90
73438;DHT22;66471;56.532;21.020;2024-03-22T03:24:44;4.40;99.90
73438;DHT22;66471;56.532;21.020;2024-03-22T03:27:11;4.00;99.90
73438;DHT22;66471;56.532;21.020;2024-03-22T03:29:37;4.10;99.90
73438;DHT22;66471;56.532;21.020;2024-03-22T03:32:03;4.00;99.90
73438;DHT22;66471;56.532;21.020;2024-03-22T03:34:30;4.00;99.90
73438;DHT22;66471;56.532;21.020;2024-03-22T03:36:56;3.90;99.90
73438;DHT22;66471;56.532;21.020;2024-03-22T03:39:27;4.10;99.90
73438;DHT22;66471;56.532;21.020;2024-03-22T03:41:55;4.10;99.90
73438;DHT22;66471;56.532;21.020;2024-03-22T03:44:21;4.10;99.90
73438;DHT22;66471;56.532;21.020;2024-03-22T03:46:48;4.10;99.90
73438;DHT22;66471;56.532;21.020;2024-03-22T03:49:14;4.10;99.90
73438;DHT22;66471;56.532;21.020;2024-03-22T03:51:40;3.80;99.90
73438;DHT22;66471;56.532;21.020;2024-03-22T03:54:07;4.10;99.90
73438;DHT22;66471;56.532;21.020;2024-03-22T03:56:33;4.10;99.90
73438;DHT22;66471;56.532;21.020;2024-03-22T03:58:59;4.00;99.90
73438;DHT22;66471;56.532;21.020;2024-03-22T04:01:26;4.20;99.90
73438;DHT22;66471;56.532;21.020;2024-03-22T04:03:52;4.10;99.90
73438;DHT22;66471;56.532;21.020;2024-03-22T04:06:18;4.10;99.90
73438;DHT22;66471;56.532;21.020;2024-03-22T04:08:45;4.20;99.90
73438;DHT22;66471;56.532;21.020;2024-03-22T04:11:11;4.20;99.90
73438;DHT22;66471;56.532;21.020;2024-03-22T04:13:38;4.20;99.90
73438;DHT22;66471;56.532;21.020;2024-03-22T04:16:04;4.10;99.90
73438;DHT22;66471;56.532;21.020;2024-03-22T04:18:31;3.90;99.90
73438;DHT22;66471;56.532;21.020;2024-03-22T04:20:58;4.20;99.90
73438;DHT22;66471;56.532;21.020;2024-03-22T04:23:25;4.00;99.90
73438;DHT22;66471;56.532;21.020;2024-03-22T04:25:56;4.20;99.90
73438;DHT22;66471;56.532;21.020;2024-03-22T04:28:22;4.20;99.90
73438;DHT22;66471;56.532;21.020;2024-03-22T04:31:04;4.20;99.90
73438;DHT22;66471;56.532;21.020;2024-03-22T04:33:32;4.10;99.90
73438;DHT22;66471;56.532;21.020;2024-03-22T04:35:59;4.20;99.90
73438;DHT22;66471;56.532;21.020;2024-03-22T04:38:26;4.20;99.90
73438;DHT22;66471;56.532;21.020;2024-03-22T04:40:53;4.20;99.90
73438;DHT22;66471;56.532;21.020;2024-03-22T04:43:20;4.10;99.90
73438;DHT22;66471;56.532;21.020;2024-03-22T04:45:47;4.00;99.90
73438;DHT22;66471;56.532;21.020;2024-03-22T04:48:16;4.10;99.90
73438;DHT22;66471;56.532;21.020;2024-03-22T04:50:42;4.00;99.90
73438;DHT22;66471;56.532;21.020;2024-03-22T04:53:09;4.00;99.90
73438;DHT22;66471;56.532;21.020;2024-03-22T04:55:35;4.10;99.90
73438;DHT22;66471;56.532;21.020;2024-03-22T04:58:01;4.00;99.90
73438;DHT22;66471;56.532;21.020;2024-03-22T05:00:28;4.00;99.90
73438;DHT22;66471;56.532;21.020;2024-03-22T05:02:54;4.20;99.90
73438;DHT22;66471;56.532;21.020;2024-03-22T05:05:21;4.10;99.90
73438;DHT22;66471;56.532;21.020;2024-03-22T05:07:47;4.20;99.90
73438;DHT22;66471;56.532;21.020;2024-03-22T05:10:13;4.20;99.90
73438;DHT22;66471;56.532;21.020;2024-03-22T05:12:39;4.30;99.90
73438;DHT22;66471;56.532;21.020;2024-03-22T05:15:06;4.20;99.90
73438;DHT22;66471;56.532;21.020;2024-03-22T05:17:32;4.10;99.90
73438;DHT22;66471;56.532;21.020;2024-03-22T05:19:59;4.30;99.90
73438;DHT22;66471;56.532;21.020;2024-03-22T05:22:25;4.30;99.90
73438;DHT22;66471;56.532;21.020;2024-03-22T05:24:51;4.30;99.90
73438;DHT22;66471;56.532;21.020;2024-03-22T05:27:18;4.30;99.90
73438;DHT22;66471;56.532;21.020;2024-03-22T05:29:44;4.20;99.90
73438;DHT22;66471;56.532;21.020;2024-03-22T05:32:10;4.30;99.90
73438;DHT22;66471;56.532;21.020;2024-03-22T05:34:37;4.50;99.90
73438;DHT22;66471;56.532;21.020;2024-03-22T05:37:03;4.30;99.90
73438;DHT22;66471;56.532;21.020;2024-03-22T05:39:30;4.30;99.90
73438;DHT22;66471;56.532;21.020;2024-03-22T05:41:56;4.60;99.90
73438;DHT22;66471;56.532;21.020;2024-03-22T05:44:22;4.50;99.90
73438;DHT22;66471;56.532;21.020;2024-03-22T05:46:49;4.20;99.90
73438;DHT22;66471;56.532;21.020;2024-03-22T05:49:15;4.30;99.90
73438;DHT22;66471;56.532;21.020;2024-03-22T05:51:41;4.40;99.90
73438;DHT22;66471;56.532;21.020;2024-03-22T05:54:07;4.50;99.90
73438;DHT22;66471;56.532;21.020;2024-03-22T05:56:33;4.40;99.90
73438;DHT22;66471;56.532;21.020;2024-03-22T05:59:00;4.50;99.90
73438;DHT22;66471;56.532;21.020;2024-03-22T06:01:26;4.50;99.90
73438;DHT22;66471;56.532;21.020;2024-03-22T06:03:53;4.50;99.90
73438;DHT22;66471;56.532;21.020;2024-03-22T06:06:19;4.60;99.90
73438;DHT22;66471;56.532;21.020;2024-03-22T06:08:54;4.70;99.90
73438;DHT22;66471;56.532;21.020;2024-03-22T06:11:20;4.80;99.90
73438;DHT22;66471;56.532;21.020;2024-03-22T06:13:50;4.60;99.90
73438;DHT22;66471;56.532;21.020;2024-03-22T06:16:17;4.70;99.90
73438;DHT22;66471;56.532;21.020;2024-03-22T06:18:43;4.70;99.90
73438;DHT22;66471;56.532;21.020;2024-03-22T06:21:09;4.90;99.90
73438;DHT22;66471;56.532;21.020;2024-03-22T06:23:36;4.80;99.90
73438;DHT22;66471;56.532;21.020;2024-03-22T06:26:02;4.70;99.90
73438;DHT22;66471;56.532;21.020;2024-03-22T06:28:29;4.70;99.90
73438;DHT22;66471;56.532;21.020;2024-03-22T06:30:55;4.90;99.90
73438;DHT22;66471;56.532;21.020;2024-03-22T06:33:21;4.80;99.90
73438;DHT22;66471;56.532;21.020;2024-03-22T06:35:47;4.90;99.90
73438;DHT22;66471;56.532;21.020;2024-03-22T06:38:14;4.70;99.90
73438;DHT22;66471;56.532;21.020;2024-03-22T06:40:40;4.90;99.90
73438;DHT22;66471;56.532;21.020;2024-03-22T06:43:07;4.90;99.90
73438;DHT22;66471;56.532;21.020;2024-03-22T06:45:33;4.90;99.90
73438;DHT22;66471;56.532;21.020;2024-03-22T06:47:59;4.70;99.90
73438;DHT22;66471;56.532;21.020;2024-03-22T06:50:26;4.80;99.90
73438;DHT22;66471;56.532;21.020;2024-03-22T06:52:52;4.80;99.90
73438;DHT22;66471;56.532;21.020;2024-03-22T06:55:20;4.90;99.90
73438;DHT22;66471;56.532;21.020;2024-03-22T06:57:47;4.90;99.90
73438;DHT22;66471;56.532;21.020;2024-03-22T07:00:14;4.90;99.90
73438;DHT22;66471;56.532;21.020;2024-03-22T07:02:40;4.80;99.90
73438;DHT22;66471;56.532;21.020;2024-03-22T07:05:08;4.90;99.90
73438;DHT22;66471;56.532;21.020;2024-03-22T07:07:35;4.80;99.90
73438;DHT22;66471;56.532;21.020;2024-03-22T07:10:02;4.80;99.90
73438;DHT22;66471;56.532;21.020;2024-03-22T07:12:28;4.90;99.90
73438;DHT22;66471;56.532;21.020;2024-03-22T07:14:55;4.90;99.90
73438;DHT22;66471;56.532;21.020;2024-03-22T07:17:22;4.60;99.90
73438;DHT22;66471;56.532;21.020;2024-03-22T07:19:53;4.70;99.90
73438;DHT22;66471;56.532;21.020;2024-03-22T07:22:20;4.60;99.90
73438;DHT22;66471;56.532;21.020;2024-03-22T07:24:47;4.80;99.90
73438;DHT22;66471;56.532;21.020;2024-03-22T07:27:14;4.60;99.90
73438;DHT22;66471;56.532;21.020;2024-03-22T07:29:47;4.70;99.90
73438;DHT22;66471;56.532;21.020;2024-03-22T07:32:13;4.60;99.90
73438;DHT22;66471;56.532;21.020;2024-03-22T07:34:39;4.80;99.90
73438;DHT22;66471;56.532;21.020;2024-03-22T07:37:06;4.70;99.90
73438;DHT22;66471;56.532;21.020;2024-03-22T07:39:32;4.60;99.90
73438;DHT22;66471;56.532;21.020;2024-03-22T07:41:58;4.50;99.90
73438;DHT22;66471;56.532;21.020;2024-03-22T07:44:25;4.60;99.90
73438;DHT22;66471;56.532;21.020;2024-03-22T07:46:52;4.80;99.90
73438;DHT22;66471;56.532;21.020;2024-03-22T07:49:19;4.70;99.90
73438;DHT22;66471;56.532;21.020;2024-03-22T07:51:45;4.70;99.90
73438;DHT22;66471;56.532;21.020;2024-03-22T07:54:11;4.50;99.90
73438;DHT22;66471;56.532;21.020;2024-03-22T07:56:38;4.60;99.90
73438;DHT22;66471;56.532;21.020;2024-03-22T07:59:04;4.80;99.90
73438;DHT22;66471;56.532;21.020;2024-03-22T08:01:30;4.80;99.90
73438;DHT22;66471;56.532;21.020;2024-03-22T08:03:57;4.60;99.90
73438;DHT22;66471;56.532;21.020;2024-03-22T08:06:24;4.80;99.90
73438;DHT22;66471;56.532;21.020;2024-03-22T08:08:50;4.70;99.90
73438;DHT22;66471;56.532;21.020;2024-03-22T08:11:19;4.70;99.90
73438;DHT22;66471;56.532;21.020;2024-03-22T08:13:45;4.80;99.90
73438;DHT22;66471;56.532;21.020;2024-03-22T08:16:12;4.80;99.90
73438;DHT22;66471;56.532;21.020;2024-03-22T08:18:39;4.80;99.90
73438;DHT22;66471;56.532;21.020;2024-03-22T08:21:05;4.80;99.90
73438;DHT22;66471;56.532;21.020;2024-03-22T08:23:31;4.80;99.90
73438;DHT22;66471;56.532;21.020;2024-03-22T08:25:58;4.70;99.90
73438;DHT22;66471;56.532;21.020;2024-03-22T08:28:24;4.90;99.90
73438;DHT22;66471;56.532;21.020;2024-03-22T08:30:50;4.90;99.90
73438;DHT22;66471;56.532;21.020;2024-03-22T08:33:17;4.80;99.90
73438;DHT22;66471;56.532;21.020;2024-03-22T08:35:44;4.80;99.90
73438;DHT22;66471;56.532;21.020;2024-03-22T08:38:10;4.60;99.90
73438;DHT22;66471;56.532;21.020;2024-03-22T08:40:37;4.80;99.90
73438;DHT22;66471;56.532;21.020;2024-03-22T08:43:05;4.90;99.90
73438;DHT22;66471;56.532;21.020;2024-03-22T08:45:33;4.90;99.90
73438;DHT22;66471;56.532;21.020;2024-03-22T08:48:00;4.90;99.90
73438;DHT22;66471;56.532;21.020;2024-03-22T08:50:26;4.90;99.90
73438;DHT22;66471;56.532;21.020;2024-03-22T08:52:53;4.90;99.90
73438;DHT22;66471;56.532;21.020;2024-03-22T08:55:19;5.00;99.90
73438;DHT22;66471;56.532;21.020;2024-03-22T08:57:45;5.00;99.90
73438;DHT22;66471;56.532;21.020;2024-03-22T09:00:12;4.80;99.90
73438;DHT22;66471;56.532;21.020;2024-03-22T09:02:38;5.10;99.90
73438;DHT22;66471;56.532;21.020;2024-03-22T09:05:05;4.90;99.90
73438;DHT22;66471;56.532;21.020;2024-03-22T09:07:32;5.00;99.90
73438;DHT22;66471;56.532;21.020;2024-03-22T09:09:58;5.00;99.90
73438;DHT22;66471;56.532;21.020;2024-03-22T09:12:25;4.70;99.90
73438;DHT22;66471;56.532;21.020;2024-03-22T09:14:51;4.80;99.90
73438;DHT22;66471;56.532;21.020;2024-03-22T09:17:17;4.90;99.90
73438;DHT22;66471;56.532;21.020;2024-03-22T09:19:43;4.90;99.90
73438;DHT22;66471;56.532;21.020;2024-03-22T09:22:10;5.00;99.90
73438;DHT22;66471;56.532;21.020;2024-03-22T09:24:36;4.90;99.90
73438;DHT22;66471;56.532;21.020;2024-03-22T09:27:02;5.00;99.90
73438;DHT22;66471;56.532;21.020;2024-03-22T09:29:35;5.10;99.90
73438;DHT22;66471;56.532;21.020;2024-03-22T09:32:02;4.90;99.90
73438;DHT22;66471;56.532;21.020;2024-03-22T09:34:29;5.10;99.90
73438;DHT22;66471;56.532;21.020;2024-03-22T09:36:56;4.60;99.90
73438;DHT22;66471;56.532;21.020;2024-03-22T09:39:22;4.80;99.90
73438;DHT22;66471;56.532;21.020;2024-03-22T09:41:50;4.90;99.90
73438;DHT22;66471;56.532;21.020;2024-03-22T09:44:21;4.90;99.90
73438;DHT22;66471;56.532;21.020;2024-03-22T09:46:48;4.90;99.90
73438;DHT22;66471;56.532;21.020;2024-03-22T09:49:16;5.00;99.90
73438;DHT22;66471;56.532;21.020;2024-03-22T09:51:43;4.90;99.90
73438;DHT22;66471;56.532;21.020;2024-03-22T09:54:10;4.80;99.90
73438;DHT22;66471;56.532;21.020;2024-03-22T09:56:40;4.80;99.90
73438;DHT22;66471;56.532;21.020;2024-03-22T09:59:06;4.70;99.90
73438;DHT22;66471;56.532;21.020;2024-03-22T10:01:34;5.00;99.90
73438;DHT22;66471;56.532;21.020;2024-03-22T10:04:01;4.90;99.90
73438;DHT22;66471;56.532;21.020;2024-03-22T10:06:29;4.80;99.90
73438;DHT22;66471;56.532;21.020;2024-03-22T10:08:59;4.80;99.90
73438;DHT22;66471;56.532;21.020;2024-03-22T10:11:27;4.90;99.90
73438;DHT22;66471;56.532;21.020;2024-03-22T10:13:53;4.60;99.90
73438;DHT22;66471;56.532;21.020;2024-03-22T10:16:24;4.80;99.90
73438;DHT22;66471;56.532;21.020;2024-03-22T10:18:50;4.80;99.90
73438;DHT22;66471;56.532;21.020;2024-03-22T10:21:18;4.90;99.90
73438;DHT22;66471;56.532;21.020;2024-03-22T10:23:44;5.00;99.90
73438;DHT22;66471;56.532;21.020;2024-03-22T10:26:13;5.00;99.90
73438;DHT22;66471;56.532;21.020;2024-03-22T10:28:46;4.90;99.90
73438;DHT22;66471;56.532;21.020;2024-03-22T10:31:13;4.90;99.90
73438;DHT22;66471;56.532;21.020;2024-03-22T10:33:44;5.10;99.90
73438;DHT22;66471;56.532;21.020;2024-03-22T10:36:11;5.00;99.90
73438;DHT22;66471;56.532;21.020;2024-03-22T10:38:39;5.20;99.90
73438;DHT22;66471;56.532;21.020;2024-03-22T10:41:06;5.10;99.90
73438;DHT22;66471;56.532;21.020;2024-03-22T10:43:33;5.00;99.90
73438;DHT22;66471;56.532;21.020;2024-03-22T10:46:01;5.20;99.90
73438;DHT22;66471;56.532;21.020;2024-03-22T10:48:32;5.10;99.90
73438;DHT22;66471;56.532;21.020;2024-03-22T10:51:01;5.00;99.90
73438;DHT22;66471;56.532;21.020;2024-03-22T10:53:30;5.00;99.90
73438;DHT22;66471;56.532;21.020;2024-03-22T10:55:59;5.00;99.90
73438;DHT22;66471;56.532;21.020;2024-03-22T10:58:27;5.10;99.90
73438;DHT22;66471;56.532;21.020;2024-03-22T11:00:54;5.00;99.90
73438;DHT22;66471;56.532;21.020;2024-03-22T11:03:26;5.10;99.90
73438;DHT22;66471;56.532;21.020;2024-03-22T11:05:56;5.10;99.90
73438;DHT22;66471;56.532;21.020;2024-03-22T11:08:27;5.20;99.90
73438;DHT22;66471;56.532;21.020;2024-03-22T11:10:56;5.20;99.90
73438;DHT22;66471;56.532;21.020;2024-03-22T11:13:23;5.20;99.90
73438;DHT22;66471;56.532;21.020;2024-03-22T11:15:49;5.20;99.90
73438;DHT22;66471;56.532;21.020;2024-03-22T11:18:17;5.20;99.90
73438;DHT22;66471;56.532;21.020;2024-03-22T11:20:44;5.00;99.90
73438;DHT22;66471;56.532;21.020;2024-03-22T11:23:13;4.90;99.90
73438;DHT22;66471;56.532;21.020;2024-03-22T11:25:40;5.00;99.90
73438;DHT22;66471;56.532;21.020;2024-03-22T11:28:06;5.10;99.90
73438;DHT22;66471;56.532;21.020;2024-03-22T11:30:33;5.10;99.90
73438;DHT22;66471;56.532;21.020;2024-03-22T11:33:06;5.10;99.90
73438;DHT22;66471;56.532;21.020;2024-03-22T11:35:34;4.90;99.90
73438;DHT22;66471;56.532;21.020;2024-03-22T11:38:00;5.10;99.90
73438;DHT22;66471;56.532;21.020;2024-03-22T11:40:27;5.20;99.90
73438;DHT22;66471;56.532;21.020;2024-03-22T11:42:57;4.90;99.90
73438;DHT22;66471;56.532;21.020;2024-03-22T11:45:24;5.10;99.90
73438;DHT22;66471;56.532;21.020;2024-03-22T11:47:52;5.10;99.90
73438;DHT22;66471;56.532;21.020;2024-03-22T11:50:18;5.10;99.90
73438;DHT22;66471;56.532;21.020;2024-03-22T11:52:45;4.90;99.90
73438;DHT22;66471;56.532;21.020;2024-03-22T11:55:14;5.00;99.90
73438;DHT22;66471;56.532;21.020;2024-03-22T11:57:41;5.20;99.90
73438;DHT22;66471;56.532;21.020;2024-03-22T12:00:08;5.00;99.90
73438;DHT22;66471;56.532;21.020;2024-03-22T12:02:35;4.80;99.90
73438;DHT22;66471;56.532;21.020;2024-03-22T12:05:03;5.10;99.90
73438;DHT22;66471;56.532;21.020;2024-03-22T12:07:30;4.80;99.90
73438;DHT22;66471;56.532;21.020;2024-03-22T12:09:56;4.90;99.90
73438;DHT22;66471;56.532;21.020;2024-03-22T12:12:22;4.80;99.90
73438;DHT22;66471;56.532;21.020;2024-03-22T12:14:49;4.90;99.90
73438;DHT22;66471;56.532;21.020;2024-03-22T12:17:17;4.80;99.90
73438;DHT22;66471;56.532;21.020;2024-03-22T12:19:44;4.70;99.90
73438;DHT22;66471;56.532;21.020;2024-03-22T12:22:11;4.80;99.90
73438;DHT22;66471;56.532;21.020;2024-03-22T12:24:37;4.90;99.90
73438;DHT22;66471;56.532;21.020;2024-03-22T12:27:03;4.70;99.90
73438;DHT22;66471;56.532;21.020;2024-03-22T12:29:33;4.80;99.90
73438;DHT22;66471;56.532;21.020;2024-03-22T12:32:01;4.80;99.90
73438;DHT22;66471;56.532;21.020;2024-03-22T12:34:28;5.00;99.90
73438;DHT22;66471;56.532;21.020;2024-03-22T12:36:55;4.70;99.90
73438;DHT22;66471;56.532;21.020;2024-03-22T12:39:22;4.70;99.90
73438;DHT22;66471;56.532;21.020;2024-03-22T12:41:48;4.70;99.90
73438;DHT22;66471;56.532;21.020;2024-03-22T12:44:14;4.70;99.90
73438;DHT22;66471;56.532;21.020;2024-03-22T12:46:41;4.70;99.90
73438;DHT22;66471;56.532;21.020;2024-03-22T12:49:09;4.80;99.90
73438;DHT22;66471;56.532;21.020;2024-03-22T12:51:36;4.70;99.90
73438;DHT22;66471;56.532;21.020;2024-03-22T12:54:03;4.90;99.90
73438;DHT22;66471;56.532;21.020;2024-03-22T12:56:30;4.80;99.90
73438;DHT22;66471;56.532;21.020;2024-03-22T12:58:56;4.90;99.90
73438;DHT22;66471;56.532;21.020;2024-03-22T13:01:23;4.90;99.90
73438;DHT22;66471;56.532;21.020;2024-03-22T13:03:49;4.90;99.90
73438;DHT22;66471;56.532;21.020;2024-03-22T13:06:16;4.90;99.90
73438;DHT22;66471;56.532;21.020;2024-03-22T13:08:42;4.90;99.90
73438;DHT22;66471;56.532;21.020;2024-03-22T13:11:08;4.90;99.90
73438;DHT22;66471;56.532;21.020;2024-03-22T13:13:35;4.90;99.90
73438;DHT22;66471;56.532;21.020;2024-03-22T13:16:01;4.80;99.90
73438;DHT22;66471;56.532;21.020;2024-03-22T13:18:29;5.00;99.90
73438;DHT22;66471;56.532;21.020;2024-03-22T13:20:55;4.80;99.90
73438;DHT22;66471;56.532;21.020;2024-03-22T13:23:21;4.90;99.90
73438;DHT22;66471;56.532;21.020;2024-03-22T13:25:48;4.80;99.90
73438;DHT22;66471;56.532;21.020;2024-03-22T13:28:15;4.80;99.90
73438;DHT22;66471;56.532;21.020;2024-03-22T13:30:46;4.80;99.90
73438;DHT22;66471;56.532;21.020;2024-03-22T13:33:13;4.90;99.90
73438;DHT22;66471;56.532;21.020;2024-03-22T13:35:39;4.90;99.90
73438;DHT22;66471;56.532;21.020;2024-03-22T13:38:07;5.00;99.90
73438;DHT22;66471;56.532;21.020;2024-03-22T13:40:39;5.00;99.90
73438;DHT22;66471;56.532;21.020;2024-03-22T13:43:10;4.90;99.90
73438;DHT22;66471;56.532;21.020;2024-03-22T13:45:42;4.90;99.90
73438;DHT22;66471;56.532;21.020;2024-03-22T13:48:12;4.90;99.90
73438;DHT22;66471;56.532;21.020;2024-03-22T13:50:38;4.90;99.90
73438;DHT22;66471;56.532;21.020;2024-03-22T13:53:05;5.00;99.90
73438;DHT22;66471;56.532;21.020;2024-03-22T13:55:31;5.00;99.90
73438;DHT22;66471;56.532;21.020;2024-03-22T13:57:58;5.00;99.90
73438;DHT22;66471;56.532;21.020;2024-03-22T14:00:26;5.00;99.90
73438;DHT22;66471;56.532;21.020;2024-03-22T14:02:52;5.00;99.90
73438;DHT22;66471;56.532;21.020;2024-03-22T14:05:21;5.10;99.90
73438;DHT22;66471;56.532;21.020;2024-03-22T14:07:50;5.10;99.90
73438;DHT22;66471;56.532;21.020;2024-03-22T14:10:17;5.10;99.90
73438;DHT22;66471;56.532;21.020;2024-03-22T14:12:45;5.10;99.90
73438;DHT22;66471;56.532;21.020;2024-03-22T14:15:13;5.10;99.90
73438;DHT22;66471;56.532;21.020;2024-03-22T14:17:39;5.20;99.90
73438;DHT22;66471;56.532;21.020;2024-03-22T14:20:06;5.00;99.90
73438;DHT22;66471;56.532;21.020;2024-03-22T14:22:41;5.10;99.90
73438;DHT22;66471;56.532;21.020;2024-03-22T14:25:07;5.20;99.90
73438;DHT22;66471;56.532;21.020;2024-03-22T14:27:38;5.10;99.90
73438;DHT22;66471;56.532;21.020;2024-03-22T14:30:05;5.10;99.90
73438;DHT22;66471;56.532;21.020;2024-03-22T14:32:36;5.10;99.90
73438;DHT22;66471;56.532;21.020;2024-03-22T14:35:02;5.30;99.90
73438;DHT22;66471;56.532;21.020;2024-03-22T14:37:29;5.10;99.90
73438;DHT22;66471;56.532;21.020;2024-03-22T14:39:55;5.10;99.90
73438;DHT22;66471;56.532;21.020;2024-03-22T14:42:21;5.30;99.90
73438;DHT22;66471;56.532;21.020;2024-03-22T14:44:48;5.10;99.90
73438;DHT22;66471;56.532;21.020;2024-03-22T14:47:15;5.30;99.90
73438;DHT22;66471;56.532;21.020;2024-03-22T14:49:41;5.30;99.90
73438;DHT22;66471;56.532;21.020;2024-03-22T14:52:08;5.20;99.90
73438;DHT22;66471;56.532;21.020;2024-03-22T14:54:35;5.20;99.90
73438;DHT22;66471;56.532;21.020;2024-03-22T14:57:01;5.10;99.90
73438;DHT22;66471;56.532;21.020;2024-03-22T14:59:31;5.30;99.90
73438;DHT22;66471;56.532;21.020;2024-03-22T15:01:57;5.20;99.90
73438;DHT22;66471;56.532;21.020;2024-03-22T15:04:23;5.20;99.90
73438;DHT22;66471;56.532;21.020;2024-03-22T15:06:49;5.30;99.90
73438;DHT22;66471;56.532;21.020;2024-03-22T15:09:17;5.20;99.90
73438;DHT22;66471;56.532;21.020;2024-03-22T15:11:47;5.00;99.90
73438;DHT22;66471;56.532;21.020;2024-03-22T15:14:14;5.40;99.90
73438;DHT22;66471;56.532;21.020;2024-03-22T15:16:41;5.20;99.90
73438;DHT22;66471;56.532;21.020;2024-03-22T15:19:09;5.10;99.90
73438;DHT22;66471;56.532;21.020;2024-03-22T15:21:38;5.40;99.90
73438;DHT22;66471;56.532;21.020;2024-03-22T15:24:05;5.40;99.90
73438;DHT22;66471;56.532;21.020;2024-03-22T15:26:32;5.30;99.90
73438;DHT22;66471;56.532;21.020;2024-03-22T15:28:58;5.40;99.90